sensor_id;sensor_type;location;lat;lon;timestamp;P1;durP1;ratioP1;P2;durP2;ratioP2
22236;SDS011;11287;48.122;11.536;2023-02-22T00:01:50;12.77;;;5.30;;
22236;SDS011;11287;48.122;11.536;2023-02-22T00:04:34;9.75;;;4.90;;
22236;SDS011;11287;48.122;11.536;2023-02-22T00:07:00;11.15;;;5.20;;
22236;SDS011;11287;48.122;11.536;2023-02-22T00:09:26;8.45;;;4.95;;
22236;SDS011;11287;48.122;11.536;2023-02-22T00:11:51;9.95;;;5.10;;
22236;SDS011;11287;48.122;11.536;2023-02-22T00:14:16;6.93;;;4.68;;
22236;SDS011;11287;48.122;11.536;2023-02-22T00:16:44;10.27;;;5.10;;
22236;SDS011;11287;48.122;11.536;2023-02-22T00:19:09;7.95;;;4.80;;
22236;SDS011;11287;48.122;11.536;2023-02-22T00:21:34;8.13;;;4.82;;
22236;SDS011;11287;48.122;11.536;2023-02-22T00:24:01;8.48;;;4.38;;
22236;SDS011;11287;48.122;11.536;2023-02-22T00:26:41;7.95;;;4.65;;
22236;SDS011;11287;48.122;11.536;2023-02-22T00:29:06;9.93;;;4.38;;
22236;SDS011;11287;48.122;11.536;2023-02-22T00:31:35;11.25;;;4.40;;
22236;SDS011;11287;48.122;11.536;2023-02-22T00:34:02;8.82;;;4.57;;
22236;SDS011;11287;48.122;11.536;2023-02-22T00:36:27;9.15;;;4.82;;
22236;SDS011;11287;48.122;11.536;2023-02-22T00:38:53;8.25;;;4.30;;
22236;SDS011;11287;48.122;11.536;2023-02-22T00:41:18;8.00;;;4.35;;
22236;SDS011;11287;48.122;11.536;2023-02-22T00:43:43;6.75;;;4.13;;
22236;SDS011;11287;48.122;11.536;2023-02-22T00:46:08;7.10;;;3.72;;
22236;SDS011;11287;48.122;11.536;2023-02-22T00:48:34;9.70;;;4.57;;
22236;SDS011;11287;48.122;11.536;2023-02-22T00:50:59;9.18;;;3.85;;
22236;SDS011;11287;48.122;11.536;2023-02-22T00:53:25;9.13;;;3.75;;
22236;SDS011;11287;48.122;11.536;2023-02-22T00:55:52;7.07;;;3.90;;
22236;SDS011;11287;48.122;11.536;2023-02-22T00:58:17;6.93;;;3.55;;
22236;SDS011;11287;48.122;11.536;2023-02-22T01:00:42;4.45;;;3.63;;
22236;SDS011;11287;48.122;11.536;2023-02-22T01:03:10;4.45;;;3.40;;
22236;SDS011;11287;48.122;11.536;2023-02-22T01:05:37;5.85;;;3.33;;
22236;SDS011;11287;48.122;11.536;2023-02-22T01:08:03;5.80;;;3.45;;
22236;SDS011;11287;48.122;11.536;2023-02-22T01:10:30;5.70;;;3.03;;
22236;SDS011;11287;48.122;11.536;2023-02-22T01:12:57;8.77;;;4.90;;
22236;SDS011;11287;48.122;11.536;2023-02-22T01:15:23;7.72;;;4.20;;
22236;SDS011;11287;48.122;11.536;2023-02-22T01:17:51;8.30;;;4.57;;
22236;SDS011;11287;48.122;11.536;2023-02-22T01:20:17;6.60;;;4.25;;
22236;SDS011;11287;48.122;11.536;2023-02-22T01:22:46;9.25;;;4.60;;
22236;SDS011;11287;48.122;11.536;2023-02-22T01:25:15;7.30;;;4.50;;
22236;SDS011;11287;48.122;11.536;2023-02-22T01:27:42;5.57;;;3.65;;
22236;SDS011;11287;48.122;11.536;2023-02-22T01:30:09;4.93;;;3.65;;
22236;SDS011;11287;48.122;11.536;2023-02-22T01:32:36;6.15;;;3.13;;
22236;SDS011;11287;48.122;11.536;2023-02-22T01:35:04;6.45;;;3.47;;
22236;SDS011;11287;48.122;11.536;2023-02-22T01:37:32;7.05;;;3.00;;
22236;SDS011;11287;48.122;11.536;2023-02-22T01:39:58;4.65;;;3.30;;
22236;SDS011;11287;48.122;11.536;2023-02-22T01:42:24;5.22;;;3.22;;
22236;SDS011;11287;48.122;11.536;2023-02-22T01:47:53;6.32;;;3.05;;
22236;SDS011;11287;48.122;11.536;2023-02-22T01:50:19;3.90;;;2.85;;
22236;SDS011;11287;48.122;11.536;2023-02-22T01:52:45;7.13;;;3.60;;
22236;SDS011;11287;48.122;11.536;2023-02-22T01:55:10;4.85;;;2.55;;
22236;SDS011;11287;48.122;11.536;2023-02-22T01:57:35;4.05;;;2.70;;
22236;SDS011;11287;48.122;11.536;2023-02-22T02:00:04;6.25;;;2.97;;
22236;SDS011;11287;48.122;11.536;2023-02-22T02:02:35;3.35;;;2.53;;
22236;SDS011;11287;48.122;11.536;2023-02-22T02:05:01;6.43;;;3.00;;
22236;SDS011;11287;48.122;11.536;2023-02-22T02:07:32;3.55;;;2.70;;
22236;SDS011;11287;48.122;11.536;2023-02-22T02:09:58;6.07;;;2.67;;
22236;SDS011;11287;48.122;11.536;2023-02-22T02:12:26;2.95;;;2.20;;
22236;SDS011;11287;48.122;11.536;2023-02-22T02:14:53;5.80;;;3.30;;
22236;SDS011;11287;48.122;11.536;2023-02-22T02:17:42;5.57;;;2.92;;
22236;SDS011;11287;48.122;11.536;2023-02-22T02:22:54;4.03;;;2.58;;
22236;SDS011;11287;48.122;11.536;2023-02-22T02:34:02;3.97;;;2.10;;
22236;SDS011;11287;48.122;11.536;2023-02-22T02:42:05;3.60;;;2.05;;
22236;SDS011;11287;48.122;11.536;2023-02-22T02:44:35;3.42;;;2.05;;
22236;SDS011;11287;48.122;11.536;2023-02-22T02:47:10;3.13;;;2.17;;
22236;SDS011;11287;48.122;11.536;2023-02-22T02:49:49;8.93;;;2.00;;
22236;SDS011;11287;48.122;11.536;2023-02-22T02:52:18;2.60;;;2.08;;
22236;SDS011;11287;48.122;11.536;2023-02-22T02:54:45;2.60;;;2.08;;
22236;SDS011;11287;48.122;11.536;2023-02-22T02:57:11;3.13;;;2.22;;
22236;SDS011;11287;48.122;11.536;2023-02-22T02:59:37;3.08;;;2.50;;
22236;SDS011;11287;48.122;11.536;2023-02-22T03:04:47;5.05;;;2.47;;
22236;SDS011;11287;48.122;11.536;2023-02-22T03:07:30;3.78;;;2.03;;
22236;SDS011;11287;48.122;11.536;2023-02-22T03:12:39;4.35;;;2.30;;
22236;SDS011;11287;48.122;11.536;2023-02-22T03:18:08;4.40;;;2.50;;
22236;SDS011;11287;48.122;11.536;2023-02-22T03:21:06;4.75;;;2.30;;
22236;SDS011;11287;48.122;11.536;2023-02-22T03:23:39;4.45;;;2.47;;
22236;SDS011;11287;48.122;11.536;2023-02-22T03:29:26;6.28;;;2.10;;
22236;SDS011;11287;48.122;11.536;2023-02-22T03:31:55;4.10;;;2.42;;
22236;SDS011;11287;48.122;11.536;2023-02-22T03:34:26;4.53;;;2.42;;
22236;SDS011;11287;48.122;11.536;2023-02-22T03:36:59;5.85;;;2.20;;
22236;SDS011;11287;48.122;11.536;2023-02-22T03:39:27;3.70;;;2.40;;
22236;SDS011;11287;48.122;11.536;2023-02-22T03:41:55;2.33;;;2.10;;
22236;SDS011;11287;48.122;11.536;2023-02-22T03:44:23;2.85;;;1.95;;
22236;SDS011;11287;48.122;11.536;2023-02-22T03:46:49;4.65;;;2.15;;
22236;SDS011;11287;48.122;11.536;2023-02-22T03:49:31;3.30;;;2.30;;
22236;SDS011;11287;48.122;11.536;2023-02-22T03:51:59;4.32;;;2.35;;
22236;SDS011;11287;48.122;11.536;2023-02-22T03:54:25;2.97;;;2.30;;
22236;SDS011;11287;48.122;11.536;2023-02-22T03:57:05;6.38;;;2.60;;
22236;SDS011;11287;48.122;11.536;2023-02-22T03:59:34;10.07;;;2.70;;
22236;SDS011;11287;48.122;11.536;2023-02-22T04:02:00;4.35;;;2.17;;
22236;SDS011;11287;48.122;11.536;2023-02-22T04:04:26;5.20;;;2.75;;
22236;SDS011;11287;48.122;11.536;2023-02-22T04:06:51;3.33;;;2.33;;
22236;SDS011;11287;48.122;11.536;2023-02-22T04:09:17;4.25;;;2.35;;
22236;SDS011;11287;48.122;11.536;2023-02-22T04:11:42;9.40;;;2.42;;
22236;SDS011;11287;48.122;11.536;2023-02-22T04:14:08;3.72;;;2.50;;
22236;SDS011;11287;48.122;11.536;2023-02-22T04:16:33;3.70;;;2.33;;
22236;SDS011;11287;48.122;11.536;2023-02-22T04:18:58;3.97;;;2.60;;
22236;SDS011;11287;48.122;11.536;2023-02-22T04:21:24;4.65;;;2.33;;
22236;SDS011;11287;48.122;11.536;2023-02-22T04:23:49;3.95;;;2.50;;
22236;SDS011;11287;48.122;11.536;2023-02-22T04:26:14;3.78;;;2.67;;
22236;SDS011;11287;48.122;11.536;2023-02-22T04:28:40;3.05;;;2.15;;
22236;SDS011;11287;48.122;11.536;2023-02-22T04:31:05;2.90;;;2.30;;
22236;SDS011;11287;48.122;11.536;2023-02-22T04:33:31;3.92;;;2.50;;
22236;SDS011;11287;48.122;11.536;2023-02-22T04:35:56;6.13;;;2.40;;
22236;SDS011;11287;48.122;11.536;2023-02-22T04:38:22;5.53;;;2.78;;
22236;SDS011;11287;48.122;11.536;2023-02-22T04:40:50;6.72;;;2.80;;
22236;SDS011;11287;48.122;11.536;2023-02-22T04:43:15;4.80;;;2.40;;
22236;SDS011;11287;48.122;11.536;2023-02-22T04:45:41;4.45;;;2.80;;
22236;SDS011;11287;48.122;11.536;2023-02-22T04:48:06;4.93;;;2.80;;
22236;SDS011;11287;48.122;11.536;2023-02-22T04:50:31;7.57;;;2.97;;
22236;SDS011;11287;48.122;11.536;2023-02-22T04:52:57;6.38;;;2.72;;
22236;SDS011;11287;48.122;11.536;2023-02-22T04:55:22;3.25;;;2.33;;
22236;SDS011;11287;48.122;11.536;2023-02-22T04:57:47;6.47;;;2.90;;
22236;SDS011;11287;48.122;11.536;2023-02-22T05:00:17;6.07;;;2.53;;
22236;SDS011;11287;48.122;11.536;2023-02-22T05:02:45;5.90;;;3.13;;
22236;SDS011;11287;48.122;11.536;2023-02-22T05:05:12;7.68;;;2.75;;
22236;SDS011;11287;48.122;11.536;2023-02-22T05:07:38;8.95;;;2.72;;
22236;SDS011;11287;48.122;11.536;2023-02-22T05:10:04;5.47;;;2.83;;
22236;SDS011;11287;48.122;11.536;2023-02-22T05:12:29;4.65;;;2.55;;
22236;SDS011;11287;48.122;11.536;2023-02-22T05:14:54;9.18;;;3.10;;
22236;SDS011;11287;48.122;11.536;2023-02-22T05:17:20;5.68;;;2.53;;
22236;SDS011;11287;48.122;11.536;2023-02-22T05:19:45;7.55;;;3.50;;
22236;SDS011;11287;48.122;11.536;2023-02-22T05:22:11;6.53;;;2.95;;
22236;SDS011;11287;48.122;11.536;2023-02-22T05:24:36;6.95;;;2.75;;
22236;SDS011;11287;48.122;11.536;2023-02-22T05:27:02;4.50;;;2.65;;
22236;SDS011;11287;48.122;11.536;2023-02-22T05:29:27;6.78;;;3.28;;
22236;SDS011;11287;48.122;11.536;2023-02-22T05:31:53;6.90;;;2.85;;
22236;SDS011;11287;48.122;11.536;2023-02-22T05:34:18;10.25;;;2.63;;
22236;SDS011;11287;48.122;11.536;2023-02-22T05:36:43;7.03;;;2.85;;
22236;SDS011;11287;48.122;11.536;2023-02-22T05:39:10;6.25;;;3.10;;
22236;SDS011;11287;48.122;11.536;2023-02-22T05:41:36;6.43;;;2.88;;
22236;SDS011;11287;48.122;11.536;2023-02-22T05:44:01;14.35;;;4.28;;
22236;SDS011;11287;48.122;11.536;2023-02-22T05:46:27;9.90;;;4.28;;
22236;SDS011;11287;48.122;11.536;2023-02-22T05:48:52;7.35;;;3.67;;
22236;SDS011;11287;48.122;11.536;2023-02-22T05:51:17;7.28;;;3.40;;
22236;SDS011;11287;48.122;11.536;2023-02-22T05:53:43;7.35;;;3.38;;
22236;SDS011;11287;48.122;11.536;2023-02-22T05:56:09;5.13;;;3.17;;
22236;SDS011;11287;48.122;11.536;2023-02-22T05:58:34;6.60;;;3.00;;
22236;SDS011;11287;48.122;11.536;2023-02-22T06:00:59;4.80;;;2.60;;
22236;SDS011;11287;48.122;11.536;2023-02-22T06:03:25;5.68;;;3.10;;
22236;SDS011;11287;48.122;11.536;2023-02-22T06:05:50;5.68;;;2.65;;
22236;SDS011;11287;48.122;11.536;2023-02-22T06:08:15;3.40;;;2.55;;
22236;SDS011;11287;48.122;11.536;2023-02-22T06:10:42;5.53;;;2.80;;
22236;SDS011;11287;48.122;11.536;2023-02-22T06:13:08;5.30;;;2.67;;
22236;SDS011;11287;48.122;11.536;2023-02-22T06:15:33;5.18;;;2.63;;
22236;SDS011;11287;48.122;11.536;2023-02-22T06:17:58;8.75;;;3.60;;
22236;SDS011;11287;48.122;11.536;2023-02-22T06:20:24;3.95;;;2.80;;
22236;SDS011;11287;48.122;11.536;2023-02-22T06:22:52;9.05;;;2.53;;
22236;SDS011;11287;48.122;11.536;2023-02-22T06:25:22;5.55;;;2.70;;
22236;SDS011;11287;48.122;11.536;2023-02-22T06:27:49;4.05;;;2.58;;
22236;SDS011;11287;48.122;11.536;2023-02-22T06:30:15;6.20;;;2.42;;
22236;SDS011;11287;48.122;11.536;2023-02-22T06:32:41;4.00;;;2.53;;
22236;SDS011;11287;48.122;11.536;2023-02-22T06:35:07;8.63;;;2.85;;
22236;SDS011;11287;48.122;11.536;2023-02-22T06:37:33;9.32;;;2.70;;
22236;SDS011;11287;48.122;11.536;2023-02-22T06:39:58;8.82;;;2.83;;
22236;SDS011;11287;48.122;11.536;2023-02-22T06:42:23;4.43;;;2.63;;
22236;SDS011;11287;48.122;11.536;2023-02-22T06:44:48;6.18;;;2.67;;
22236;SDS011;11287;48.122;11.536;2023-02-22T06:47:14;3.55;;;2.58;;
22236;SDS011;11287;48.122;11.536;2023-02-22T06:49:39;5.38;;;2.80;;
22236;SDS011;11287;48.122;11.536;2023-02-22T06:52:05;4.57;;;3.30;;
22236;SDS011;11287;48.122;11.536;2023-02-22T06:54:31;10.63;;;3.40;;
22236;SDS011;11287;48.122;11.536;2023-02-22T06:56:57;7.85;;;3.10;;
22236;SDS011;11287;48.122;11.536;2023-02-22T06:59:22;7.78;;;3.10;;
22236;SDS011;11287;48.122;11.536;2023-02-22T07:01:47;6.80;;;2.90;;
22236;SDS011;11287;48.122;11.536;2023-02-22T07:04:13;3.67;;;2.60;;
22236;SDS011;11287;48.122;11.536;2023-02-22T07:06:43;4.82;;;2.83;;
22236;SDS011;11287;48.122;11.536;2023-02-22T07:09:10;10.48;;;3.08;;
22236;SDS011;11287;48.122;11.536;2023-02-22T07:11:37;9.60;;;2.83;;
22236;SDS011;11287;48.122;11.536;2023-02-22T07:14:03;5.95;;;2.83;;
22236;SDS011;11287;48.122;11.536;2023-02-22T07:16:28;8.00;;;3.00;;
22236;SDS011;11287;48.122;11.536;2023-02-22T07:18:54;3.72;;;2.67;;
22236;SDS011;11287;48.122;11.536;2023-02-22T07:21:19;4.28;;;2.47;;
22236;SDS011;11287;48.122;11.536;2023-02-22T07:23:51;5.82;;;2.50;;
22236;SDS011;11287;48.122;11.536;2023-02-22T07:26:17;4.35;;;2.47;;
22236;SDS011;11287;48.122;11.536;2023-02-22T07:28:43;6.47;;;2.70;;
22236;SDS011;11287;48.122;11.536;2023-02-22T07:31:09;3.65;;;2.42;;
22236;SDS011;11287;48.122;11.536;2023-02-22T07:33:34;4.60;;;2.45;;
22236;SDS011;11287;48.122;11.536;2023-02-22T07:35:59;4.38;;;2.40;;
22236;SDS011;11287;48.122;11.536;2023-02-22T07:38:25;4.35;;;2.30;;
22236;SDS011;11287;48.122;11.536;2023-02-22T07:40:50;2.92;;;2.28;;
22236;SDS011;11287;48.122;11.536;2023-02-22T07:45:45;3.67;;;2.60;;
22236;SDS011;11287;48.122;11.536;2023-02-22T07:48:11;4.13;;;2.70;;
22236;SDS011;11287;48.122;11.536;2023-02-22T07:50:37;7.05;;;2.53;;
22236;SDS011;11287;48.122;11.536;2023-02-22T07:53:05;5.68;;;2.95;;
22236;SDS011;11287;48.122;11.536;2023-02-22T07:55:32;7.13;;;2.40;;
22236;SDS011;11287;48.122;11.536;2023-02-22T07:57:59;11.40;;;5.25;;
22236;SDS011;11287;48.122;11.536;2023-02-22T08:02:52;6.07;;;2.95;;
22236;SDS011;11287;48.122;11.536;2023-02-22T08:05:18;4.38;;;2.50;;
22236;SDS011;11287;48.122;11.536;2023-02-22T08:07:44;9.63;;;2.50;;
22236;SDS011;11287;48.122;11.536;2023-02-22T08:10:09;3.80;;;2.47;;
22236;SDS011;11287;48.122;11.536;2023-02-22T08:12:35;7.47;;;2.70;;
22236;SDS011;11287;48.122;11.536;2023-02-22T08:15:05;11.85;;;3.22;;
22236;SDS011;11287;48.122;11.536;2023-02-22T08:17:32;9.35;;;3.17;;
22236;SDS011;11287;48.122;11.536;2023-02-22T08:19:57;8.68;;;2.53;;
22236;SDS011;11287;48.122;11.536;2023-02-22T08:22:22;6.63;;;2.83;;
22236;SDS011;11287;48.122;11.536;2023-02-22T08:24:48;6.20;;;2.70;;
22236;SDS011;11287;48.122;11.536;2023-02-22T08:27:13;6.80;;;2.70;;
22236;SDS011;11287;48.122;11.536;2023-02-22T08:29:39;3.22;;;2.55;;
22236;SDS011;11287;48.122;11.536;2023-02-22T08:32:04;4.40;;;2.53;;
22236;SDS011;11287;48.122;11.536;2023-02-22T08:34:30;8.48;;;2.80;;
22236;SDS011;11287;48.122;11.536;2023-02-22T08:36:55;11.85;;;3.53;;
22236;SDS011;11287;48.122;11.536;2023-02-22T08:39:21;9.70;;;2.90;;
22236;SDS011;11287;48.122;11.536;2023-02-22T08:41:46;8.45;;;3.03;;
22236;SDS011;11287;48.122;11.536;2023-02-22T08:44:11;11.73;;;4.28;;
22236;SDS011;11287;48.122;11.536;2023-02-22T08:46:37;14.02;;;3.60;;
22236;SDS011;11287;48.122;11.536;2023-02-22T08:49:02;9.30;;;3.38;;
22236;SDS011;11287;48.122;11.536;2023-02-22T08:51:28;8.38;;;2.85;;
22236;SDS011;11287;48.122;11.536;2023-02-22T08:53:53;13.80;;;3.00;;
22236;SDS011;11287;48.122;11.536;2023-02-22T08:56:19;6.68;;;3.00;;
22236;SDS011;11287;48.122;11.536;2023-02-22T08:58:44;10.45;;;2.88;;
22236;SDS011;11287;48.122;11.536;2023-02-22T09:01:10;8.13;;;2.75;;
22236;SDS011;11287;48.122;11.536;2023-02-22T09:03:35;5.50;;;2.50;;
22236;SDS011;11287;48.122;11.536;2023-02-22T09:06:00;4.47;;;1.98;;
22236;SDS011;11287;48.122;11.536;2023-02-22T09:08:26;10.73;;;2.50;;
22236;SDS011;11287;48.122;11.536;2023-02-22T09:10:51;7.95;;;2.60;;
22236;SDS011;11287;48.122;11.536;2023-02-22T09:13:16;8.02;;;2.50;;
22236;SDS011;11287;48.122;11.536;2023-02-22T09:15:42;5.10;;;2.47;;
22236;SDS011;11287;48.122;11.536;2023-02-22T09:18:08;11.55;;;2.50;;
22236;SDS011;11287;48.122;11.536;2023-02-22T09:20:35;6.63;;;2.30;;
22236;SDS011;11287;48.122;11.536;2023-02-22T09:23:01;7.80;;;2.40;;
22236;SDS011;11287;48.122;11.536;2023-02-22T09:25:27;2.92;;;1.95;;
22236;SDS011;11287;48.122;11.536;2023-02-22T09:27:53;6.68;;;2.67;;
22236;SDS011;11287;48.122;11.536;2023-02-22T09:30:22;7.95;;;2.00;;
22236;SDS011;11287;48.122;11.536;2023-02-22T09:32:50;3.53;;;2.45;;
22236;SDS011;11287;48.122;11.536;2023-02-22T09:35:16;8.30;;;2.63;;
22236;SDS011;11287;48.122;11.536;2023-02-22T09:37:42;6.30;;;2.10;;
22236;SDS011;11287;48.122;11.536;2023-02-22T09:40:13;4.95;;;1.70;;
22236;SDS011;11287;48.122;11.536;2023-02-22T09:42:43;5.00;;;2.03;;
22236;SDS011;11287;48.122;11.536;2023-02-22T09:45:19;4.43;;;2.38;;
22236;SDS011;11287;48.122;11.536;2023-02-22T09:47:48;4.82;;;2.05;;
22236;SDS011;11287;48.122;11.536;2023-02-22T09:50:19;10.98;;;2.08;;
22236;SDS011;11287;48.122;11.536;2023-02-22T09:52:50;4.07;;;1.70;;
22236;SDS011;11287;48.122;11.536;2023-02-22T09:57:52;7.07;;;1.92;;
22236;SDS011;11287;48.122;11.536;2023-02-22T10:00:21;5.50;;;2.00;;
22236;SDS011;11287;48.122;11.536;2023-02-22T10:05:40;5.38;;;2.42;;
22236;SDS011;11287;48.122;11.536;2023-02-22T10:08:11;5.53;;;2.20;;
22236;SDS011;11287;48.122;11.536;2023-02-22T10:10:40;5.60;;;2.20;;
22236;SDS011;11287;48.122;11.536;2023-02-22T10:18:54;4.25;;;1.80;;
22236;SDS011;11287;48.122;11.536;2023-02-22T10:27:08;4.13;;;1.50;;
22236;SDS011;11287;48.122;11.536;2023-02-22T10:29:40;4.22;;;1.40;;
22236;SDS011;11287;48.122;11.536;2023-02-22T10:32:13;8.18;;;1.20;;
22236;SDS011;11287;48.122;11.536;2023-02-22T10:34:50;4.00;;;1.20;;
22236;SDS011;11287;48.122;11.536;2023-02-22T10:37:24;5.95;;;1.10;;
22236;SDS011;11287;48.122;11.536;2023-02-22T10:39:56;5.30;;;1.90;;
22236;SDS011;11287;48.122;11.536;2023-02-22T10:42:29;6.38;;;1.38;;
22236;SDS011;11287;48.122;11.536;2023-02-22T10:44:54;1.88;;;1.40;;
22236;SDS011;11287;48.122;11.536;2023-02-22T10:47:20;3.65;;;1.70;;
22236;SDS011;11287;48.122;11.536;2023-02-22T10:49:47;1.77;;;1.50;;
22236;SDS011;11287;48.122;11.536;2023-02-22T10:52:21;3.70;;;1.90;;
22236;SDS011;11287;48.122;11.536;2023-02-22T10:54:49;3.83;;;1.27;;
22236;SDS011;11287;48.122;11.536;2023-02-22T10:57:23;1.40;;;1.30;;
22236;SDS011;11287;48.122;11.536;2023-02-22T10:59:50;3.28;;;1.20;;
22236;SDS011;11287;48.122;11.536;2023-02-22T11:02:20;4.05;;;1.10;;
22236;SDS011;11287;48.122;11.536;2023-02-22T11:04:51;3.72;;;1.63;;
22236;SDS011;11287;48.122;11.536;2023-02-22T11:07:34;3.67;;;1.10;;
22236;SDS011;11287;48.122;11.536;2023-02-22T11:10:01;2.28;;;1.02;;
22236;SDS011;11287;48.122;11.536;2023-02-22T11:12:36;1.77;;;1.10;;
22236;SDS011;11287;48.122;11.536;2023-02-22T11:17:40;10.10;;;1.33;;
22236;SDS011;11287;48.122;11.536;2023-02-22T11:20:05;2.05;;;1.27;;
22236;SDS011;11287;48.122;11.536;2023-02-22T11:22:36;3.70;;;1.20;;
22236;SDS011;11287;48.122;11.536;2023-02-22T11:25:05;1.30;;;0.80;;
22236;SDS011;11287;48.122;11.536;2023-02-22T11:30:20;3.22;;;0.75;;
22236;SDS011;11287;48.122;11.536;2023-02-22T11:32:58;2.40;;;0.85;;
22236;SDS011;11287;48.122;11.536;2023-02-22T11:37:52;1.23;;;1.00;;
22236;SDS011;11287;48.122;11.536;2023-02-22T11:40:20;1.83;;;1.00;;
22236;SDS011;11287;48.122;11.536;2023-02-22T11:42:47;1.05;;;0.88;;
22236;SDS011;11287;48.122;11.536;2023-02-22T11:45:17;2.35;;;0.90;;
22236;SDS011;11287;48.122;11.536;2023-02-22T11:47:53;3.30;;;1.00;;
22236;SDS011;11287;48.122;11.536;2023-02-22T11:50:30;2.60;;;0.70;;
22236;SDS011;11287;48.122;11.536;2023-02-22T11:53:03;1.00;;;0.77;;
22236;SDS011;11287;48.122;11.536;2023-02-22T11:58:48;5.43;;;1.73;;
22236;SDS011;11287;48.122;11.536;2023-02-22T12:01:22;4.57;;;1.30;;
22236;SDS011;11287;48.122;11.536;2023-02-22T12:03:56;0.73;;;0.70;;
22236;SDS011;11287;48.122;11.536;2023-02-22T12:09:17;1.70;;;0.70;;
22236;SDS011;11287;48.122;11.536;2023-02-22T12:11:58;7.63;;;1.10;;
22236;SDS011;11287;48.122;11.536;2023-02-22T12:17:04;2.60;;;0.52;;
22236;SDS011;11287;48.122;11.536;2023-02-22T12:19:50;1.85;;;1.42;;
22236;SDS011;11287;48.122;11.536;2023-02-22T12:22:26;3.70;;;0.90;;
22236;SDS011;11287;48.122;11.536;2023-02-22T12:24:59;3.47;;;0.73;;
22236;SDS011;11287;48.122;11.536;2023-02-22T12:27:32;1.92;;;0.70;;
22236;SDS011;11287;48.122;11.536;2023-02-22T12:30:22;2.40;;;0.50;;
22236;SDS011;11287;48.122;11.536;2023-02-22T12:32:52;0.45;;;0.40;;
22236;SDS011;11287;48.122;11.536;2023-02-22T12:35:21;1.20;;;0.70;;
22236;SDS011;11287;48.122;11.536;2023-02-22T12:40:54;1.15;;;0.43;;
22236;SDS011;11287;48.122;11.536;2023-02-22T12:43:27;1.63;;;0.47;;
22236;SDS011;11287;48.122;11.536;2023-02-22T12:46:00;1.85;;;0.68;;
22236;SDS011;11287;48.122;11.536;2023-02-22T12:54:04;1.02;;;0.40;;
22236;SDS011;11287;48.122;11.536;2023-02-22T12:59:21;1.95;;;0.50;;
22236;SDS011;11287;48.122;11.536;2023-02-22T13:01:52;0.98;;;0.50;;
22236;SDS011;11287;48.122;11.536;2023-02-22T13:04:20;2.13;;;0.70;;
22236;SDS011;11287;48.122;11.536;2023-02-22T13:12:52;3.38;;;0.85;;
22236;SDS011;11287;48.122;11.536;2023-02-22T13:20:16;0.70;;;0.50;;
22236;SDS011;11287;48.122;11.536;2023-02-22T13:22:49;1.90;;;0.50;;
22236;SDS011;11287;48.122;11.536;2023-02-22T13:27:51;1.10;;;0.60;;
22236;SDS011;11287;48.122;11.536;2023-02-22T13:36:28;0.40;;;0.38;;
22236;SDS011;11287;48.122;11.536;2023-02-22T13:53:17;0.75;;;0.22;;
22236;SDS011;11287;48.122;11.536;2023-02-22T13:55:52;0.85;;;0.60;;
22236;SDS011;11287;48.122;11.536;2023-02-22T13:58:20;0.88;;;0.30;;
22236;SDS011;11287;48.122;11.536;2023-02-22T14:06:53;0.40;;;0.30;;
22236;SDS011;11287;48.122;11.536;2023-02-22T14:09:06;1.73;;;0.60;;
22236;SDS011;11287;48.122;11.536;2023-02-22T14:16:31;0.57;;;0.50;;
22236;SDS011;11287;48.122;11.536;2023-02-22T14:22:03;1.88;;;0.47;;
22236;SDS011;11287;48.122;11.536;2023-02-22T14:24:51;0.40;;;0.40;;
22236;SDS011;11287;48.122;11.536;2023-02-22T14:27:15;0.52;;;0.52;;
22236;SDS011;11287;48.122;11.536;2023-02-22T14:29:48;4.07;;;1.15;;
22236;SDS011;11287;48.122;11.536;2023-02-22T14:32:16;1.40;;;0.95;;
22236;SDS011;11287;48.122;11.536;2023-02-22T14:37:19;5.32;;;1.63;;
22236;SDS011;11287;48.122;11.536;2023-02-22T14:39:49;5.75;;;1.58;;
22236;SDS011;11287;48.122;11.536;2023-02-22T14:42:23;4.43;;;1.60;;
22236;SDS011;11287;48.122;11.536;2023-02-22T14:44:55;4.10;;;1.70;;
22236;SDS011;11287;48.122;11.536;2023-02-22T14:50:26;4.97;;;1.73;;
22236;SDS011;11287;48.122;11.536;2023-02-22T14:52:56;6.32;;;1.83;;
22236;SDS011;11287;48.122;11.536;2023-02-22T14:55:25;6.13;;;1.70;;
22236;SDS011;11287;48.122;11.536;2023-02-22T15:00:41;10.57;;;1.77;;
22236;SDS011;11287;48.122;11.536;2023-02-22T15:03:16;3.22;;;1.80;;
22236;SDS011;11287;48.122;11.536;2023-02-22T15:05:43;2.90;;;1.40;;
22236;SDS011;11287;48.122;11.536;2023-02-22T15:08:09;3.80;;;2.80;;
22236;SDS011;11287;48.122;11.536;2023-02-22T15:13:13;5.72;;;2.00;;
22236;SDS011;11287;48.122;11.536;2023-02-22T15:15:42;5.22;;;2.33;;
22236;SDS011;11287;48.122;11.536;2023-02-22T15:18:15;4.50;;;1.75;;
22236;SDS011;11287;48.122;11.536;2023-02-22T15:20:43;2.67;;;1.83;;
22236;SDS011;11287;48.122;11.536;2023-02-22T15:23:12;3.72;;;2.00;;
22236;SDS011;11287;48.122;11.536;2023-02-22T15:25:39;4.18;;;2.10;;
22236;SDS011;11287;48.122;11.536;2023-02-22T15:28:06;4.50;;;2.10;;
22236;SDS011;11287;48.122;11.536;2023-02-22T15:30:33;10.00;;;2.00;;
22236;SDS011;11287;48.122;11.536;2023-02-22T15:33:09;4.22;;;2.33;;
22236;SDS011;11287;48.122;11.536;2023-02-22T15:35:40;4.55;;;1.80;;
22236;SDS011;11287;48.122;11.536;2023-02-22T15:40:37;8.38;;;1.85;;
22236;SDS011;11287;48.122;11.536;2023-02-22T15:43:07;4.45;;;1.60;;
22236;SDS011;11287;48.122;11.536;2023-02-22T15:45:39;3.70;;;2.20;;
22236;SDS011;11287;48.122;11.536;2023-02-22T15:48:07;8.23;;;2.30;;
22236;SDS011;11287;48.122;11.536;2023-02-22T15:50:33;6.50;;;2.60;;
22236;SDS011;11287;48.122;11.536;2023-02-22T15:53:06;10.05;;;3.25;;
22236;SDS011;11287;48.122;11.536;2023-02-22T15:55:37;5.07;;;2.53;;
22236;SDS011;11287;48.122;11.536;2023-02-22T16:00:35;13.23;;;2.80;;
22236;SDS011;11287;48.122;11.536;2023-02-22T16:03:09;6.30;;;2.40;;
22236;SDS011;11287;48.122;11.536;2023-02-22T16:05:41;9.52;;;2.90;;
22236;SDS011;11287;48.122;11.536;2023-02-22T16:08:13;14.40;;;7.47;;
22236;SDS011;11287;48.122;11.536;2023-02-22T16:10:43;7.05;;;3.88;;
22236;SDS011;11287;48.122;11.536;2023-02-22T16:13:21;8.85;;;3.47;;
22236;SDS011;11287;48.122;11.536;2023-02-22T16:16:34;3.78;;;2.67;;
22236;SDS011;11287;48.122;11.536;2023-02-22T16:18:46;6.72;;;3.13;;
22236;SDS011;11287;48.122;11.536;2023-02-22T16:21:13;8.80;;;3.15;;
22236;SDS011;11287;48.122;11.536;2023-02-22T16:23:43;7.45;;;3.58;;
22236;SDS011;11287;48.122;11.536;2023-02-22T16:26:32;8.95;;;2.90;;
22236;SDS011;11287;48.122;11.536;2023-02-22T16:28:59;8.85;;;3.25;;
22236;SDS011;11287;48.122;11.536;2023-02-22T16:31:27;7.35;;;3.33;;
22236;SDS011;11287;48.122;11.536;2023-02-22T16:33:55;7.03;;;3.65;;
22236;SDS011;11287;48.122;11.536;2023-02-22T16:36:22;10.63;;;4.28;;
22236;SDS011;11287;48.122;11.536;2023-02-22T16:38:48;7.57;;;4.70;;
22236;SDS011;11287;48.122;11.536;2023-02-22T16:41:15;12.25;;;4.07;;
22236;SDS011;11287;48.122;11.536;2023-02-22T16:43:44;8.13;;;3.30;;
22236;SDS011;11287;48.122;11.536;2023-02-22T16:46:11;10.70;;;4.72;;
22236;SDS011;11287;48.122;11.536;2023-02-22T16:48:37;10.50;;;4.88;;
22236;SDS011;11287;48.122;11.536;2023-02-22T16:51:07;7.15;;;3.67;;
22236;SDS011;11287;48.122;11.536;2023-02-22T16:53:38;11.35;;;5.47;;
22236;SDS011;11287;48.122;11.536;2023-02-22T16:56:04;9.30;;;3.90;;
22236;SDS011;11287;48.122;11.536;2023-02-22T16:58:33;13.63;;;3.35;;
22236;SDS011;11287;48.122;11.536;2023-02-22T17:01:01;15.93;;;3.50;;
22236;SDS011;11287;48.122;11.536;2023-02-22T17:03:26;8.98;;;3.83;;
22236;SDS011;11287;48.122;11.536;2023-02-22T17:05:51;11.52;;;3.47;;